Time;durP1;ratioP1;P1;durP2;ratioP2;P2;SDS_P1;SDS_P2;PMS_P1;PMS_P2;Temp;Humidity;BMP_temperature;BMP_pressure;BME280_temperature;BME280_humidity;BME280_pressure;Samples;Min_cycle;Max_cycle;Signal;HPM_P1;HPM_P2
2023/03/25 00:00:16;;;;;;;5.20;3.40;;;;;;;12.11;80.58;97508.84;105204;1259;108461;-73
2023/03/25 00:02:47;;;;;;;5.40;3.80;;;;;;;12.10;80.94;97510.98;105163;1258;98828;-73
2023/03/25 00:05:16;;;;;;;5.30;3.90;;;;;;;12.08;80.86;97514.31;105304;1254;97938;-73
2023/03/25 00:07:47;;;;;;;8.10;4.00;;;;;;;12.05;80.95;97510.44;105228;1267;112220;-73
2023/03/25 00:10:16;;;;;;;7.10;4.10;;;;;;;12.00;80.92;97508.45;105096;1257;98922;-72
2023/03/25 00:12:43;;;;;;;7.30;4.60;;;;;;;11.97;81.22;97515.35;105268;1256;97980;-73
2023/03/25 00:15:12;;;;;;;7.00;4.70;;;;;;;11.92;81.40;97521.34;105162;1267;98813;-74
2023/03/25 00:17:39;;;;;;;9.00;5.20;;;;;;;11.90;81.40;97526.30;106553;1267;97929;-74
2023/03/25 00:20:08;;;;;;;7.10;3.90;;;;;;;11.90;81.89;97520.26;104936;1257;111731;-74
2023/03/25 00:22:39;;;;;;;7.20;4.40;;;;;;;11.88;81.93;97513.77;105131;1266;99245;-73
2023/03/25 00:25:17;;;;;;;6.90;4.60;;;;;;;11.87;81.97;97507.87;105165;1257;108489;-74
2023/03/25 00:27:49;;;;;;;6.50;4.30;;;;;;;11.85;81.78;97507.19;105161;1254;98404;-74
2023/03/25 00:30:19;;;;;;;5.20;3.60;;;;;;;11.85;82.05;97506.38;105080;1257;99658;-73
2023/03/25 00:32:51;;;;;;;4.70;3.70;;;;;;;11.85;82.27;97501.21;105116;1265;111947;-74
2023/03/25 00:35:20;;;;;;;5.70;3.90;;;;;;;11.85;82.17;97502.55;104981;1254;98233;-74
2023/03/25 00:37:56;;;;;;;5.20;3.80;;;;;;;11.84;82.52;97504.55;105184;1257;108215;-75
2023/03/25 00:40:23;;;;;;;7.30;4.90;;;;;;;11.82;82.51;97504.68;105229;1266;98535;-73
2023/03/25 00:42:51;;;;;;;6.70;4.10;;;;;;;11.80;82.50;97503.20;105183;1258;98012;-75
2023/03/25 00:45:18;;;;;;;7.80;5.20;;;;;;;11.77;83.05;97497.89;105263;1256;99445;-76
2023/03/25 00:47:45;;;;;;;6.80;4.70;;;;;;;11.76;82.99;97498.70;105116;1257;99740;-75
2023/03/25 00:50:12;;;;;;;7.30;4.60;;;;;;;11.73;82.96;97499.48;105177;1254;97924;-75
2023/03/25 00:52:40;;;;;;;9.10;5.20;;;;;;;11.73;82.94;97498.08;105263;1256;97829;-75
2023/03/25 00:55:07;;;;;;;6.80;4.60;;;;;;;11.74;83.24;97497.14;105029;1270;99469;-74
2023/03/25 00:57:35;;;;;;;6.90;4.60;;;;;;;11.74;82.75;97501.47;105006;1256;98041;-75
2023/03/25 01:00:06;;;;;;;9.30;4.60;;;;;;;11.73;83.30;97501.14;105013;1267;97931;-74
2023/03/25 01:02:34;;;;;;;10.60;6.60;;;;;;;11.73;83.54;97498.32;105042;1268;108244;-74
2023/03/25 01:05:01;;;;;;;7.50;5.20;;;;;;;11.74;83.88;97502.80;105167;1257;97910;-75
2023/03/25 01:07:30;;;;;;;5.40;4.10;;;;;;;11.73;83.97;97502.48;105179;1256;97902;-74
2023/03/25 01:09:59;;;;;;;5.80;4.50;;;;;;;11.72;83.86;97503.23;105217;1267;112232;-74
2023/03/25 01:12:27;;;;;;;5.60;4.70;;;;;;;11.68;84.16;97512.39;105245;1256;99146;-73
2023/03/25 01:14:54;;;;;;;9.30;5.90;;;;;;;11.65;84.03;97518.11;105069;1256;107596;-75
2023/03/25 01:17:22;;;;;;;8.50;5.50;;;;;;;11.63;84.31;97520.31;105211;1257;98809;-79
2023/03/25 01:19:49;;;;;;;8.70;5.80;;;;;;;11.62;84.18;97516.77;105079;1257;99130;-77
2023/03/25 01:22:17;;;;;;;7.80;5.30;;;;;;;11.61;84.14;97517.59;104993;1260;111789;-75
2023/03/25 01:24:43;;;;;;;6.50;5.00;;;;;;;11.60;84.94;97509.39;105355;1269;99097;-73
2023/03/25 01:27:10;;;;;;;8.30;5.60;;;;;;;11.60;84.65;97507.59;105180;1257;97905;-74
2023/03/25 01:29:38;;;;;;;8.80;5.30;;;;;;;11.61;84.47;97506.15;105229;1253;99105;-74
2023/03/25 01:32:05;;;;;;;6.70;4.40;;;;;;;11.62;84.25;97510.48;105331;1257;97912;-75
2023/03/25 01:34:32;;;;;;;5.70;4.80;;;;;;;11.64;84.61;97515.24;105209;1258;97993;-74
2023/03/25 01:36:59;;;;;;;6.50;4.80;;;;;;;11.67;84.19;97513.93;105042;1273;97999;-74
2023/03/25 01:39:27;;;;;;;6.70;4.80;;;;;;;11.69;84.08;97512.64;105094;1256;97905;-70
2023/03/25 01:41:54;;;;;;;5.60;4.80;;;;;;;11.69;84.25;97512.16;105085;1256;99231;-74
2023/03/25 01:44:21;;;;;;;8.40;5.40;;;;;;;11.66;84.40;97510.61;105135;1267;97957;-74
2023/03/25 01:46:51;;;;;;;10.70;6.40;;;;;;;11.62;84.47;97508.52;105327;1253;97919;-74
2023/03/25 01:49:43;;;;;;;8.30;6.00;;;;;;;11.59;84.42;97506.54;105199;1258;108065;-75
2023/03/25 01:52:22;;;;;;;9.40;5.80;;;;;;;11.55;84.39;97509.35;105273;1264;97998;-75
2023/03/25 01:54:52;;;;;;;10.70;5.40;;;;;;;11.54;84.05;97514.10;105032;1259;99544;-74
2023/03/25 01:57:22;;;;;;;8.90;5.40;;;;;;;11.55;83.18;97520.17;105295;1256;111682;-75
2023/03/25 01:59:51;;;;;;;5.60;4.70;;;;;;;11.57;83.37;97521.61;105370;1254;99127;-74
2023/03/25 02:02:19;;;;;;;5.40;3.80;;;;;;;11.57;82.52;97521.63;105205;1270;108574;-75
2023/03/25 02:05:04;;;;;;;5.00;3.80;;;;;;;11.58;81.97;97522.20;104779;1265;98825;-74
2023/03/25 02:07:34;;;;;;;6.80;5.10;;;;;;;11.59;81.50;97521.36;105277;1261;97956;-75
2023/03/25 02:10:04;;;;;;;6.40;4.00;;;;;;;11.58;81.28;97520.56;105096;1257;112240;-74
2023/03/25 02:12:31;;;;;;;6.00;4.20;;;;;;;11.55;81.01;97522.52;105170;1267;99480;-71
2023/03/25 02:15:01;;;;;;;6.60;4.30;;;;;;;11.53;80.93;97523.64;105276;1267;97973;-74
2023/03/25 02:17:46;;;;;;;6.90;4.70;;;;;;;11.52;81.06;97526.20;105275;1259;97945;-73
2023/03/25 02:20:38;;;;;;;7.70;5.00;;;;;;;11.48;81.06;97525.99;105297;1256;98808;-70
2023/03/25 02:23:56;;;;;;;6.40;4.40;;;;;;;11.36;81.41;97516.57;104958;1260;111344;-69
2023/03/25 02:26:40;;;;;;;5.00;3.60;;;;;;;11.27;82.08;97525.55;105301;1258;99198;-73
2023/03/25 02:29:39;;;;;;;6.40;4.50;;;;;;;11.21;82.61;97537.63;105086;1256;108598;-73
2023/03/25 02:32:27;;;;;;;7.20;4.20;;;;;;;11.16;82.93;97546.39;105029;1258;97999;-72
2023/03/25 02:35:20;;;;;;;6.70;4.50;;;;;;;11.15;83.05;97537.34;105223;1257;99108;-73
2023/03/25 02:37:57;;;;;;;5.50;4.20;;;;;;;11.11;83.09;97536.36;105089;1256;111351;-72
2023/03/25 02:40:40;;;;;;;5.30;3.70;;;;;;;11.10;83.29;97535.73;105171;1275;99209;-76
2023/03/25 02:43:44;;;;;;;5.20;4.40;;;;;;;11.11;83.35;97533.16;104827;1260;107670;-74
2023/03/25 02:46:15;;;;;;;4.90;3.60;;;;;;;11.16;82.78;97530.50;105254;1256;99251;-72
2023/03/25 02:48:52;;;;;;;7.20;4.20;;;;;;;11.07;82.29;97532.11;105324;1270;98297;-72
2023/03/25 02:51:27;;;;;;;5.90;3.70;;;;;;;11.05;82.95;97531.48;105269;1268;112365;-73
2023/03/25 02:54:00;;;;;;;8.00;5.30;;;;;;;11.07;82.79;97531.09;105097;1269;98822;-70
2023/03/25 02:56:31;;;;;;;7.60;5.00;;;;;;;11.07;82.94;97538.77;105259;1256;108599;-68
2023/03/25 02:59:02;;;;;;;12.30;6.90;;;;;;;10.99;82.84;97542.13;105120;1268;98038;-68
2023/03/25 03:01:33;;;;;;;7.00;4.60;;;;;;;10.91;82.96;97545.34;105269;1256;98791;-69
2023/03/25 03:04:01;;;;;;;5.40;3.80;;;;;;;10.81;82.97;97559.98;105260;1258;112994;-68
2023/03/25 03:06:28;;;;;;;5.50;3.60;;;;;;;10.74;82.97;97564.75;105225;1264;99213;-68
2023/03/25 03:09:08;;;;;;;3.50;2.40;;;;;;;10.71;82.96;97565.19;105122;1256;98039;-68
2023/03/25 03:12:08;;;;;;;11.20;6.50;;;;;;;10.66;82.74;97566.52;104936;1269;97910;-68
2023/03/25 03:15:13;;;;;;;6.50;4.20;;;;;;;10.61;82.70;97571.45;105150;1256;99200;-68
2023/03/25 03:17:48;;;;;;;10.80;6.30;;;;;;;10.59;82.33;97572.98;105115;1256;112256;-68
2023/03/25 03:20:32;;;;;;;5.20;3.30;;;;;;;10.61;82.46;97572.33;105070;1257;99042;-68
2023/03/25 03:23:00;;;;;;;7.60;5.00;;;;;;;10.64;82.44;97574.06;105004;1256;108730;-68
2023/03/25 03:25:35;;;;;;;6.40;4.40;;;;;;;10.63;82.28;97572.95;105159;1256;99258;-68
2023/03/25 03:28:09;;;;;;;7.20;5.00;;;;;;;10.61;82.36;97568.50;105060;1257;99030;-67
2023/03/25 03:30:48;;;;;;;6.80;5.20;;;;;;;10.59;82.18;97564.09;105109;1256;111783;-67
2023/03/25 03:33:24;;;;;;;10.30;6.30;;;;;;;10.53;82.64;97560.16;105265;1256;100287;-67
2023/03/25 03:36:00;;;;;;;8.60;5.00;;;;;;;10.49;82.92;97557.38;105267;1258;108624;-67
2023/03/25 03:38:34;;;;;;;8.80;6.10;;;;;;;10.47;82.70;97555.36;105183;1253;98050;-68
2023/03/25 03:41:09;;;;;;;9.20;6.20;;;;;;;10.41;82.74;97557.34;105271;1256;98361;-68
2023/03/25 03:44:11;;;;;;;10.00;6.90;;;;;;;10.41;82.99;97565.13;105242;1256;111685;-68
2023/03/25 03:46:57;;;;;;;7.70;5.40;;;;;;;10.41;83.03;97563.59;105048;1268;99231;-68
2023/03/25 03:49:37;;;;;;;7.60;5.30;;;;;;;10.41;82.87;97564.75;105078;1258;108761;-68
2023/03/25 03:52:18;;;;;;;8.00;5.50;;;;;;;10.40;82.45;97562.85;105134;1260;99456;-67
2023/03/25 03:54:53;;;;;;;10.90;8.00;;;;;;;10.43;82.26;97561.44;105046;1259;99761;-68
2023/03/25 03:57:40;;;;;;;8.70;5.70;;;;;;;10.46;82.27;97564.36;104963;1256;112107;-68
2023/03/25 04:00:31;;;;;;;10.20;6.30;;;;;;;10.48;82.11;97566.64;105280;1256;99039;-68
2023/03/25 04:03:24;;;;;;;7.50;5.40;;;;;;;10.47;82.13;97568.86;105161;1254;108628;-70
2023/03/25 04:06:06;;;;;;;9.90;6.00;;;;;;;10.44;82.27;97568.38;105102;1256;98856;-69
2023/03/25 04:08:58;;;;;;;10.10;6.10;;;;;;;10.39;82.28;97565.71;104972;1259;99184;-70
2023/03/25 04:11:54;;;;;;;8.00;6.00;;;;;;;10.34;82.41;97571.24;105310;1253;112297;-69
2023/03/25 04:14:21;;;;;;;11.30;7.20;;;;;;;10.25;82.56;97574.61;105244;1267;99195;-69
2023/03/25 04:16:48;;;;;;;12.40;7.80;;;;;;;10.15;82.70;97576.69;105124;1267;98812;-69
2023/03/25 04:19:18;;;;;;;15.40;9.60;;;;;;;10.08;82.95;97573.80;105195;1269;97931;-69
2023/03/25 04:21:46;;;;;;;15.70;9.80;;;;;;;10.05;83.08;97577.52;104987;1254;98399;-70
2023/03/25 04:24:15;;;;;;;12.70;8.30;;;;;;;10.01;83.04;97578.80;105076;1257;112463;-70
2023/03/25 04:26:42;;;;;;;9.40;6.60;;;;;;;10.00;83.14;97579.73;105081;1256;99128;-70
2023/03/25 04:29:09;;;;;;;8.00;6.30;;;;;;;10.01;83.17;97581.00;105073;1268;97941;-70
2023/03/25 04:31:44;;;;;;;11.10;7.30;;;;;;;10.02;83.16;97579.09;104973;1256;98340;-70
2023/03/25 04:34:13;;;;;;;9.70;6.90;;;;;;;10.03;83.33;97576.54;105055;1257;98174;-70
2023/03/25 04:36:42;;;;;;;14.60;7.40;;;;;;;10.02;83.41;97586.35;105252;1258;111189;-70
2023/03/25 04:39:10;;;;;;;12.00;8.40;;;;;;;9.94;83.16;97583.96;105278;1258;99136;-70
2023/03/25 04:41:38;;;;;;;16.90;10.40;;;;;;;9.87;83.83;97583.39;105178;1256;108629;-70
2023/03/25 04:44:06;;;;;;;19.10;11.10;;;;;;;9.84;84.05;97589.40;105034;1255;98000;-70
2023/03/25 04:46:35;;;;;;;17.10;10.30;;;;;;;9.80;84.12;97587.29;105008;1256;99573;-71
2023/03/25 04:49:04;;;;;;;39.40;19.80;;;;;;;9.74;84.42;97585.60;104859;1261;111274;-70
2023/03/25 04:51:32;;;;;;;19.00;10.40;;;;;;;9.69;84.57;97587.69;104874;1257;328861;-70
2023/03/25 04:53:59;;;;;;;20.80;11.90;;;;;;;9.66;84.38;97592.19;105202;1256;97995;-70
2023/03/25 04:56:26;;;;;;;22.20;14.00;;;;;;;9.59;84.46;97595.84;105039;1275;97992;-70
2023/03/25 04:58:53;;;;;;;26.00;13.30;;;;;;;9.55;84.33;97591.31;105211;1257;98814;-70
2023/03/25 05:01:29;;;;;;;23.00;13.30;;;;;;;9.48;84.45;97585.50;105059;1269;98011;-71
2023/03/25 05:04:04;;;;;;;23.10;11.70;;;;;;;9.46;84.64;97589.02;105106;1259;98286;-72
2023/03/25 05:06:33;;;;;;;22.10;12.10;;;;;;;9.49;84.84;97590.15;105210;1275;109842;-71
2023/03/25 05:09:03;;;;;;;41.30;17.60;;;;;;;9.52;84.95;97586.02;105279;1256;98469;-70
2023/03/25 05:11:32;;;;;;;32.80;15.80;;;;;;;9.51;84.84;97594.20;105255;1257;97894;-70
2023/03/25 05:13:59;;;;;;;13.00;9.60;;;;;;;9.51;84.87;97607.27;105279;1267;111942;-69
2023/03/25 05:16:26;;;;;;;13.00;9.30;;;;;;;9.50;84.85;97604.95;105285;1274;97935;-69
2023/03/25 05:18:53;;;;;;;14.00;10.40;;;;;;;9.49;84.85;97599.67;105265;1256;98013;-69
2023/03/25 05:21:20;;;;;;;16.40;11.20;;;;;;;9.48;85.03;97598.48;105306;1254;99201;-69
2023/03/25 05:23:47;;;;;;;37.00;17.80;;;;;;;9.49;84.92;97605.47;105222;1258;98018;-69
2023/03/25 05:26:14;;;;;;;15.40;9.40;;;;;;;9.51;85.07;97607.20;105051;1258;98604;-70
2023/03/25 05:28:41;;;;;;;12.20;7.60;;;;;;;9.55;85.39;97609.98;105158;1256;99192;-70
2023/03/25 05:31:08;;;;;;;13.10;8.70;;;;;;;9.59;85.68;97611.36;105081;1266;97919;-72
2023/03/25 05:33:42;;;;;;;11.70;8.00;;;;;;;9.62;86.19;97609.59;105327;1273;97985;-70
2023/03/25 05:36:10;;;;;;;11.40;8.10;;;;;;;9.64;86.19;97603.91;105320;1256;111879;-70
2023/03/25 05:38:40;;;;;;;11.50;8.30;;;;;;;9.68;87.00;97600.14;105360;1256;99461;-70
2023/03/25 05:41:15;;;;;;;24.60;18.20;;;;;;;9.71;87.23;97604.63;105265;1256;109148;-70
2023/03/25 05:43:46;;;;;;;11.00;7.60;;;;;;;9.75;87.34;97608.52;104986;1261;99108;-70
2023/03/25 05:46:14;;;;;;;13.20;7.90;;;;;;;9.78;87.24;97606.92;105092;1269;98421;-70
2023/03/25 05:48:41;;;;;;;15.50;9.20;;;;;;;9.83;87.45;97604.67;105134;1258;99089;-70
2023/03/25 05:51:17;;;;;;;10.20;7.90;;;;;;;9.87;87.59;97606.38;105289;1256;99218;-69
2023/03/25 05:53:48;;;;;;;13.10;7.70;;;;;;;9.90;87.84;97603.99;105102;1256;108619;-69
2023/03/25 05:56:18;;;;;;;11.80;6.60;;;;;;;9.93;87.86;97605.90;105152;1256;97989;-69
2023/03/25 05:58:45;;;;;;;12.00;6.30;;;;;;;9.95;87.88;97611.88;105153;1267;97909;-68
2023/03/25 06:01:14;;;;;;;11.10;7.00;;;;;;;9.93;87.74;97611.67;105301;1261;111603;-69
2023/03/25 06:04:00;;;;;;;12.50;7.70;;;;;;;9.90;87.45;97616.96;105277;1254;99178;-69
2023/03/25 06:06:30;;;;;;;10.60;6.80;;;;;;;9.90;86.98;97617.61;105215;1253;108457;-69
2023/03/25 06:08:58;;;;;;;10.20;6.10;;;;;;;9.92;86.26;97621.17;105235;1269;97858;-68
2023/03/25 06:11:25;;;;;;;7.60;5.70;;;;;;;9.92;85.22;97624.16;105266;1253;98920;-69
2023/03/25 06:13:52;;;;;;;9.20;6.40;;;;;;;9.96;84.69;97630.05;105215;1254;97922;-69
2023/03/25 06:16:21;;;;;;;7.50;6.10;;;;;;;10.00;84.07;97629.35;104979;1253;97986;-68
2023/03/25 06:18:54;;;;;;;9.80;6.00;;;;;;;10.03;83.65;97632.30;105147;1267;108080;-68
2023/03/25 06:21:23;;;;;;;7.10;5.00;;;;;;;10.08;83.31;97630.89;105279;1256;97934;-68
2023/03/25 06:23:49;;;;;;;7.40;6.00;;;;;;;10.11;82.94;97631.55;105019;1260;98381;-69
2023/03/25 06:26:18;;;;;;;9.70;5.50;;;;;;;10.15;83.21;97636.14;105235;1256;97928;-68
2023/03/25 06:28:46;;;;;;;6.10;4.20;;;;;;;10.16;82.73;97635.80;105258;1257;99457;-68
2023/03/25 06:31:15;;;;;;;6.50;5.10;;;;;;;10.16;82.57;97638.39;105188;1256;108512;-69
2023/03/25 06:33:43;;;;;;;7.70;5.10;;;;;;;10.22;83.03;97646.58;105234;1275;99118;-69
2023/03/25 06:36:14;;;;;;;8.00;5.10;;;;;;;10.29;83.07;97650.55;105050;1260;98532;-68
2023/03/25 06:38:41;;;;;;;6.80;3.80;;;;;;;10.36;82.53;97649.03;105187;1272;112184;-68
2023/03/25 06:41:08;;;;;;;7.00;4.30;;;;;;;10.44;81.60;97649.76;104986;1258;97999;-68
2023/03/25 06:43:35;;;;;;;7.30;4.50;;;;;;;10.52;81.16;97647.58;104928;1256;98836;-67
2023/03/25 06:46:02;;;;;;;7.50;4.50;;;;;;;10.57;80.24;97644.05;105158;1256;99244;-67
2023/03/25 06:48:29;;;;;;;7.40;4.60;;;;;;;10.62;80.83;97643.50;105129;1256;99013;-67
2023/03/25 06:50:56;;;;;;;6.70;4.70;;;;;;;10.69;80.26;97638.50;105092;1253;99235;-70
2023/03/25 06:53:24;;;;;;;9.10;4.40;;;;;;;10.74;79.33;97639.67;105108;1256;97912;-69
2023/03/25 06:55:51;;;;;;;6.50;4.50;;;;;;;10.78;79.37;97636.45;105225;1269;97935;-70
2023/03/25 06:58:19;;;;;;;6.10;4.30;;;;;;;10.85;79.47;97635.80;105203;1265;97855;-70
2023/03/25 07:00:53;;;;;;;8.50;4.80;;;;;;;10.94;79.08;97633.58;105101;1252;98434;-69
2023/03/25 07:03:20;;;;;;;9.70;5.00;;;;;;;11.04;79.32;97632.83;105206;1264;112679;-70
2023/03/25 07:05:50;;;;;;;8.20;4.20;;;;;;;11.19;79.21;97633.73;105188;1275;98006;-71
2023/03/25 07:08:17;;;;;;;8.40;4.90;;;;;;;11.33;78.19;97628.88;105159;1256;107960;-71
2023/03/25 07:10:44;;;;;;;7.10;3.60;;;;;;;11.45;77.27;97622.09;105168;1256;97962;-72
2023/03/25 07:13:17;;;;;;;9.70;3.90;;;;;;;11.51;76.72;97623.54;105151;1256;98150;-72
2023/03/25 07:15:53;;;;;;;7.30;4.20;;;;;;;11.68;76.99;97627.55;105259;1257;111802;-71
2023/03/25 07:18:20;;;;;;;7.40;4.00;;;;;;;11.87;76.96;97627.16;105319;1256;99131;-71
2023/03/25 07:20:48;;;;;;;4.70;3.70;;;;;;;12.03;75.65;97622.13;105072;1257;99208;-71
2023/03/25 07:23:15;;;;;;;6.20;4.10;;;;;;;12.16;75.99;97615.84;105206;1254;99240;-71
2023/03/25 07:25:42;;;;;;;6.20;3.50;;;;;;;12.32;75.58;97614.21;105200;1253;99121;-71
2023/03/25 07:28:09;;;;;;;6.20;4.20;;;;;;;12.40;74.76;97616.71;105147;1256;97906;-71
2023/03/25 07:30:36;;;;;;;6.90;4.50;;;;;;;12.47;74.29;97617.36;104900;1258;98108;-71
2023/03/25 07:33:03;;;;;;;9.00;4.70;;;;;;;12.46;73.27;97618.34;105134;1256;97935;-71
2023/03/25 07:35:31;;;;;;;4.60;3.40;;;;;;;12.41;73.12;97618.86;105213;1269;99246;-71
2023/03/25 07:37:58;;;;;;;5.30;4.10;;;;;;;12.38;72.91;97616.51;105232;1253;98057;-71
2023/03/25 07:40:25;;;;;;;5.40;3.50;;;;;;;12.36;73.47;97621.55;104996;1256;98707;-71
2023/03/25 07:42:52;;;;;;;5.20;3.70;;;;;;;12.32;72.75;97620.42;105024;1267;97905;-71
2023/03/25 07:45:19;;;;;;;6.90;3.80;;;;;;;12.25;72.27;97627.20;105208;1272;99231;-71
2023/03/25 07:47:49;;;;;;;4.90;3.00;;;;;;;12.18;71.81;97621.38;105293;1261;98818;-71
2023/03/25 07:50:17;;;;;;;10.20;4.00;;;;;;;12.15;71.88;97617.70;105275;1272;112718;-72
2023/03/25 07:52:45;;;;;;;7.50;3.70;;;;;;;12.28;72.60;97618.81;105139;1256;99220;-71
2023/03/25 07:55:13;;;;;;;6.30;3.70;;;;;;;12.47;71.38;97619.55;104893;1257;107523;-72
2023/03/25 07:57:43;;;;;;;7.20;4.20;;;;;;;12.67;72.06;97620.23;105229;1256;97932;-71
2023/03/25 08:00:11;;;;;;;7.70;4.60;;;;;;;12.90;71.22;97626.13;105243;1254;97840;-71
2023/03/25 08:02:38;;;;;;;5.60;3.70;;;;;;;13.09;70.91;97620.55;105023;1258;112126;-72
2023/03/25 08:05:06;;;;;;;7.00;4.20;;;;;;;13.32;70.85;97616.59;105311;1253;99504;-72
2023/03/25 08:07:34;;;;;;;8.00;4.50;;;;;;;13.57;70.44;97610.48;105097;1254;109127;-72
2023/03/25 08:10:01;;;;;;;5.70;4.10;;;;;;;13.76;69.40;97607.34;105260;1269;99107;-72
2023/03/25 08:12:28;;;;;;;10.30;4.70;;;;;;;14.00;70.00;97600.76;105074;1257;98529;-72
2023/03/25 08:14:55;;;;;;;6.30;4.50;;;;;;;14.22;68.26;97600.63;105053;1256;97932;-74
2023/03/25 08:17:22;;;;;;;8.00;3.80;;;;;;;14.27;66.32;97601.42;105191;1256;97902;-74
2023/03/25 08:19:49;;;;;;;5.80;3.70;;;;;;;14.30;64.64;97604.30;105241;1256;97913;-75
2023/03/25 08:22:16;;;;;;;5.30;3.40;;;;;;;14.34;65.62;97599.26;105276;1267;97929;-72
2023/03/25 08:24:44;;;;;;;8.40;4.10;;;;;;;14.42;66.00;97601.38;105112;1259;98088;-74
2023/03/25 08:27:11;;;;;;;7.40;4.10;;;;;;;14.55;65.96;97593.17;105173;1258;99212;-73
2023/03/25 08:29:42;;;;;;;;;;;;;;;14.61;64.85;97592.42;105154;1253;99391;-74
2023/03/25 08:32:09;;;;;;;7.30;4.30;;;;;;;14.65;64.19;97592.09;105175;1256;97897;-74
2023/03/25 08:34:38;;;;;;;6.10;4.10;;;;;;;14.68;63.88;97592.77;105244;1252;97939;-74
2023/03/25 08:37:06;;;;;;;5.70;3.50;;;;;;;14.78;64.58;97592.95;105268;1256;97903;-74
2023/03/25 08:39:38;;;;;;;6.40;4.50;;;;;;;14.90;64.04;97591.75;105109;1256;112308;-74
2023/03/25 08:42:07;;;;;;;4.90;3.90;;;;;;;15.04;63.37;97597.09;105079;1258;100012;-73
2023/03/25 08:44:34;;;;;;;5.30;3.70;;;;;;;15.14;62.45;97600.72;105245;1256;108588;-74
2023/03/25 08:47:02;;;;;;;4.60;3.30;;;;;;;15.12;61.01;97598.41;105072;1256;97916;-73
2023/03/25 08:49:29;;;;;;;7.10;3.60;;;;;;;15.05;60.52;97596.22;105177;1256;97893;-74
2023/03/25 08:51:59;;;;;;;7.20;4.10;;;;;;;14.93;60.37;97594.80;105244;1256;112199;-74
2023/03/25 08:54:27;;;;;;;3.70;2.70;;;;;;;14.93;60.60;97593.14;105149;1260;98240;-74
2023/03/25 08:56:54;;;;;;;4.70;3.20;;;;;;;14.95;60.71;97594.02;105245;1258;108742;-74
2023/03/25 08:59:21;;;;;;;4.80;3.10;;;;;;;14.98;60.38;97592.35;105663;1256;98132;-73
2023/03/25 09:01:48;;;;;;;5.60;3.80;;;;;;;15.23;61.59;97595.00;105962;1258;97942;-75
2023/03/25 09:04:16;;;;;;;5.30;3.60;;;;;;;15.71;60.06;97590.46;105177;1256;97945;-76
2023/03/25 09:06:42;;;;;;;3.90;2.60;;;;;;;15.94;58.54;97590.28;105286;1256;97872;-76
2023/03/25 09:09:15;;;;;;;3.90;2.90;;;;;;;16.00;58.13;97594.63;105167;1257;108587;-76
2023/03/25 09:11:43;;;;;;;3.70;3.10;;;;;;;16.04;57.64;97585.84;105348;1266;97989;-76
2023/03/25 09:14:09;;;;;;;5.50;2.90;;;;;;;15.99;58.05;97584.05;104769;1253;98056;-77
2023/03/25 09:16:37;;;;;;;3.60;2.00;;;;;;;16.04;58.42;97579.67;105198;1258;98031;-76
2023/03/25 09:19:04;;;;;;;3.20;2.10;;;;;;;16.18;58.07;97575.48;105160;1256;97912;-78
2023/03/25 09:21:31;;;;;;;3.30;1.70;;;;;;;16.58;56.61;97573.03;105157;1253;98823;-75
2023/03/25 09:23:58;;;;;;;4.40;1.50;;;;;;;17.13;54.94;97566.38;105170;1256;97909;-73
2023/03/25 09:26:26;;;;;;;1.50;1.00;;;;;;;17.56;52.61;97564.27;105164;1253;98427;-78
2023/03/25 09:28:56;;;;;;;5.30;1.60;;;;;;;17.99;52.11;97563.66;105204;1256;98124;-78
2023/03/25 09:31:23;;;;;;;3.60;1.10;;;;;;;18.55;49.98;97560.41;105172;1256;100249;-80
2023/03/25 09:33:50;;;;;;;1.90;1.00;;;;;;;18.73;48.89;97565.39;104948;1256;98013;-79
2023/03/25 09:36:18;;;;;;;4.40;1.00;;;;;;;18.58;48.00;97568.40;105265;1256;98031;-83
2023/03/25 09:38:45;;;;;;;2.00;1.00;;;;;;;18.17;48.48;97563.88;105093;1256;99237;-83
2023/03/25 09:41:43;;;;;;;1.20;0.80;;;;;;;17.99;47.87;97561.98;105138;1253;99220;-78
2023/03/25 09:44:36;;;;;;;3.40;1.00;;;;;;;17.65;47.80;97558.70;104757;1271;99247;-74
2023/03/25 09:47:04;;;;;;;1.80;1.00;;;;;;;17.59;49.72;97554.15;104724;1263;108613;-79
2023/03/25 09:49:41;;;;;;;2.00;1.00;;;;;;;17.63;47.62;97552.03;104561;1266;97947;-75
2023/03/25 09:52:23;;;;;;;1.80;0.80;;;;;;;17.44;47.21;97551.55;104695;1260;99245;-82
2023/03/25 09:55:02;;;;;;;1.70;0.90;;;;;;;17.26;47.67;97555.33;104472;1265;111607;-79
2023/03/25 09:57:47;;;;;;;1.20;0.60;;;;;;;16.96;48.11;97553.67;104600;1266;98688;-81
2023/03/25 10:00:19;;;;;;;1.60;0.80;;;;;;;17.11;49.38;97545.71;104878;1262;108394;-83
2023/03/25 10:03:12;;;;;;;2.50;1.20;;;;;;;17.72;48.94;97538.84;104610;1268;98111;-80
2023/03/25 10:05:45;;;;;;;2.40;0.80;;;;;;;18.27;47.54;97541.11;104536;1263;98040;-80
2023/03/25 10:08:46;;;;;;;1.50;0.80;;;;;;;18.49;46.42;97535.66;104542;1262;111955;-79
2023/03/25 10:11:44;;;;;;;1.60;0.60;;;;;;;19.03;45.77;97530.19;104700;1262;99648;-82
2023/03/25 10:14:58;;;;;;;3.00;1.30;;;;;;;19.46;45.90;97529.80;104708;1262;108602;-78
2023/03/25 10:17:55;;;;;;;2.90;0.80;;;;;;;19.73;43.65;97525.65;104610;1263;99250;-81
2023/03/25 10:21:06;;;;;;;2.30;0.80;;;;;;;19.79;43.08;97525.70;104672;1264;98205;-74
2023/03/25 10:23:41;;;;;;;4.30;0.90;;;;;;;19.25;42.21;97527.70;104893;1258;112241;-80
2023/03/25 10:26:24;;;;;;;1.70;0.90;;;;;;;18.78;44.02;97523.15;105275;1253;98606;-81
2023/03/25 10:29:02;;;;;;;3.40;0.80;;;;;;;18.76;45.53;97521.73;105064;1266;108561;-79
2023/03/25 10:31:34;;;;;;;2.10;1.00;;;;;;;18.89;43.56;97516.88;104914;1261;98111;-79
2023/03/25 10:34:06;;;;;;;2.60;0.90;;;;;;;19.07;43.51;97521.23;105077;1270;97935;-77
2023/03/25 10:36:39;;;;;;;2.90;0.80;;;;;;;19.35;43.37;97513.48;105120;1261;111209;-78
2023/03/25 10:39:17;;;;;;;1.30;0.90;;;;;;;19.19;42.92;97519.14;105032;1261;98212;-79
2023/03/25 10:42:11;;;;;;;4.70;1.20;;;;;;;18.89;43.13;97518.94;105019;1261;108870;-78
2023/03/25 10:44:38;;;;;;;2.10;0.70;;;;;;;18.66;42.90;97517.13;105201;1256;97934;-79
2023/03/25 10:47:14;;;;;;;1.70;0.60;;;;;;;18.63;43.21;97517.52;105011;1257;99212;-77
2023/03/25 10:49:45;;;;;;;2.70;0.80;;;;;;;18.75;43.88;97517.52;105124;1256;112085;-78
2023/03/25 10:52:12;;;;;;;1.10;0.60;;;;;;;18.77;43.54;97518.86;105229;1268;98042;-76
2023/03/25 10:54:44;;;;;;;1.50;0.80;;;;;;;18.87;43.93;97508.00;105026;1270;108227;-76
2023/03/25 10:57:40;;;;;;;2.30;0.80;;;;;;;19.03;43.56;97507.09;105158;1256;98002;-77
2023/03/25 11:00:16;;;;;;;1.60;0.90;;;;;;;18.72;43.79;97512.52;104626;1258;99229;-78
2023/03/25 11:02:45;;;;;;;2.20;0.90;;;;;;;18.40;45.15;97517.98;104802;1263;112100;-77
2023/03/25 11:05:17;;;;;;;2.20;1.10;;;;;;;18.21;45.14;97516.05;104934;1263;98861;-75
2023/03/25 11:07:50;;;;;;;2.60;1.10;;;;;;;17.86;46.30;97519.66;104848;1262;108771;-73
2023/03/25 11:10:25;;;;;;;2.70;1.30;;;;;;;17.64;47.47;97524.25;104565;1266;98033;-77
2023/03/25 11:12:57;;;;;;;3.60;1.50;;;;;;;17.34;48.08;97526.96;104720;1266;99763;-76
2023/03/25 11:15:29;;;;;;;2.60;1.30;;;;;;;17.10;48.96;97521.90;104707;1273;112278;-72
2023/03/25 11:18:03;;;;;;;1.50;0.70;;;;;;;16.85;48.79;97523.63;104886;1261;99132;-75
2023/03/25 11:20:40;;;;;;;2.10;0.80;;;;;;;16.50;47.39;97520.58;104565;1262;108685;-74
2023/03/25 11:23:23;;;;;;;2.30;1.00;;;;;;;16.34;48.96;97520.21;104504;1264;98047;-75
2023/03/25 11:25:53;;;;;;;2.00;1.10;;;;;;;16.31;50.08;97517.18;104501;1266;99108;-74
2023/03/25 11:28:38;;;;;;;1.60;0.80;;;;;;;16.15;49.69;97508.19;104665;1262;111262;-75
2023/03/25 11:31:06;;;;;;;2.70;1.00;;;;;;;15.88;50.22;97508.91;104620;1265;99526;-78
2023/03/25 11:33:36;;;;;;;3.80;1.60;;;;;;;15.83;50.67;97514.05;104759;1263;107354;-72
2023/03/25 11:36:16;;;;;;;5.10;1.70;;;;;;;15.85;50.70;97514.48;104638;1264;99151;-74
2023/03/25 11:38:45;;;;;;;;;;;;;;;15.76;50.13;97511.53;105168;1254;99101;-72
2023/03/25 11:41:13;;;;;;;3.00;1.50;;;;;;;15.57;49.80;97508.95;105153;1256;112818;-74
2023/03/25 11:43:41;;;;;;;4.10;1.20;;;;;;;15.53;50.49;97510.14;105268;1256;99248;-71
2023/03/25 11:46:17;;;;;;;2.40;1.10;;;;;;;15.53;50.48;97509.91;105228;1253;108575;-74